createdAt,value
2023-05-01T00:01:00.173Z,9.27
2023-05-01T00:03:27.708Z,8.93
2023-05-01T00:06:01.654Z,9.07
2023-05-01T00:08:28.924Z,9.10
2023-05-01T00:10:56.043Z,8.77
2023-05-01T00:13:24.445Z,8.57
2023-05-01T00:15:52.241Z,8.75
2023-05-01T00:18:19.170Z,9.43
2023-05-01T00:20:46.050Z,9.45
2023-05-01T00:23:13.733Z,9.73
2023-05-01T00:25:40.690Z,9.38
2023-05-01T00:28:07.753Z,9.45
2023-05-01T00:30:35.321Z,8.48
2023-05-01T00:33:02.301Z,9.15
2023-05-01T00:35:30.614Z,7.93
2023-05-01T00:37:58.443Z,7.50
2023-05-01T00:40:25.325Z,7.93
2023-05-01T00:42:52.211Z,7.50
2023-05-01T00:45:19.120Z,7.35
2023-05-01T00:47:47.035Z,7.60
2023-05-01T00:50:14.695Z,7.72
2023-05-01T00:52:42.484Z,8.27
2023-05-01T00:55:09.685Z,7.80
2023-05-01T00:57:37.110Z,8.00
2023-05-01T01:00:05.447Z,8.60
2023-05-01T01:02:32.927Z,8.02
2023-05-01T01:04:59.998Z,8.10
2023-05-01T01:07:55.750Z,9.32
2023-05-01T01:11:08.561Z,8.70
2023-05-01T01:13:58.177Z,8.80
2023-05-01T01:16:51.896Z,8.30
2023-05-01T01:19:33.507Z,9.40
2023-05-01T01:22:12.800Z,9.20
2023-05-01T01:25:37.705Z,10.20
2023-05-01T01:29:08.841Z,8.77
2023-05-01T01:32:22.404Z,8.60
2023-05-01T01:34:59.799Z,8.75
2023-05-01T01:37:37.570Z,9.48
2023-05-01T01:40:17.672Z,9.40
2023-05-01T01:42:58.690Z,9.05
2023-05-01T01:45:36.428Z,9.85
2023-05-01T01:48:06.366Z,10.23
2023-05-01T01:50:37.096Z,10.88
2023-05-01T01:53:06.784Z,10.75
2023-05-01T01:55:36.812Z,11.68
2023-05-01T01:58:06.486Z,11.15
2023-05-01T02:00:35.930Z,11.32
2023-05-01T02:03:05.835Z,11.40
2023-05-01T02:05:35.413Z,10.88
2023-05-01T02:08:05.317Z,13.50
2023-05-01T02:10:35.097Z,12.50
2023-05-01T02:13:03.447Z,13.27
2023-05-01T02:15:32.686Z,12.13
2023-05-01T02:18:05.454Z,13.05
2023-05-01T02:20:33.807Z,13.18
2023-05-01T02:23:02.233Z,13.95
2023-05-01T02:25:34.660Z,14.30
2023-05-01T02:28:08.996Z,14.23
2023-05-01T02:30:36.290Z,13.80
2023-05-01T02:33:04.006Z,13.82
2023-05-01T02:35:31.076Z,14.60
2023-05-01T02:37:58.133Z,14.48
2023-05-01T02:40:26.375Z,13.80
2023-05-01T02:42:53.778Z,14.57
2023-05-01T02:45:25.170Z,14.30
2023-05-01T02:47:57.842Z,14.27
2023-05-01T02:50:26.993Z,15.27
2023-05-01T02:52:55.174Z,15.48
2023-05-01T02:55:22.412Z,15.68
2023-05-01T02:57:51.701Z,15.65
2023-05-01T03:00:19.649Z,14.57
2023-05-01T03:02:47.349Z,15.55
2023-05-01T03:05:14.416Z,15.27
2023-05-01T03:07:41.286Z,14.82
2023-05-01T03:10:08.850Z,16.08
2023-05-01T03:12:35.706Z,16.30
2023-05-01T03:15:02.759Z,17.60
2023-05-01T03:17:29.755Z,17.75
2023-05-01T03:19:56.750Z,17.52
2023-05-01T03:22:23.911Z,18.98
2023-05-01T03:24:51.068Z,19.52
2023-05-01T03:27:17.900Z,17.52
2023-05-01T03:29:44.829Z,17.77
2023-05-01T03:32:11.754Z,17.63
2023-05-01T03:34:38.649Z,18.42
2023-05-01T03:37:05.612Z,17.77
2023-05-01T03:39:32.466Z,17.38
2023-05-01T03:41:59.304Z,16.73
2023-05-01T03:44:26.215Z,16.35
2023-05-01T03:46:53.065Z,16.65
2023-05-01T03:49:20.165Z,16.83
2023-05-01T03:51:47.296Z,16.10
2023-05-01T03:54:14.337Z,16.25
2023-05-01T03:56:41.347Z,14.88
2023-05-01T03:59:08.223Z,15.65
2023-05-01T04:01:35.071Z,15.07
2023-05-01T04:04:02.478Z,13.75
2023-05-01T04:06:29.875Z,13.73
2023-05-01T04:08:56.790Z,13.75
2023-05-01T04:11:23.652Z,12.60
2023-05-01T04:13:50.578Z,12.32
2023-05-01T04:16:18.209Z,12.27
2023-05-01T04:18:45.200Z,12.35
2023-05-01T04:21:13.238Z,11.52
2023-05-01T04:23:40.188Z,11.55
2023-05-01T04:26:07.403Z,11.38
2023-05-01T04:28:34.336Z,10.40
2023-05-01T04:31:01.614Z,12.00
2023-05-01T04:33:28.793Z,12.57
2023-05-01T04:35:55.697Z,13.10
2023-05-01T04:38:22.587Z,12.90
2023-05-01T04:40:49.498Z,14.82
2023-05-01T04:43:16.452Z,14.02
2023-05-01T04:45:43.375Z,14.05
2023-05-01T04:48:10.439Z,13.63
2023-05-01T04:50:37.739Z,11.88
2023-05-01T04:53:04.648Z,11.00
2023-05-01T04:55:31.595Z,9.88
2023-05-01T04:57:58.631Z,9.30
2023-05-01T05:00:26.208Z,9.50
2023-05-01T05:02:53.222Z,9.20
2023-05-01T05:05:20.284Z,8.95
2023-05-01T05:07:47.274Z,8.20
2023-05-01T05:10:15.123Z,8.40
2023-05-01T05:12:41.980Z,8.45
2023-05-01T05:15:09.492Z,8.35
2023-05-01T05:17:36.360Z,7.82
2023-05-01T05:20:03.593Z,8.15
2023-05-01T05:22:30.739Z,7.82
2023-05-01T05:25:04.030Z,7.82
2023-05-01T05:27:32.464Z,8.88
2023-05-01T05:30:00.192Z,8.45
2023-05-01T05:32:27.220Z,8.48
2023-05-01T05:34:54.118Z,8.32
2023-05-01T05:37:21.036Z,8.75
2023-05-01T05:39:47.849Z,9.77
2023-05-01T05:42:14.744Z,8.43
2023-05-01T05:44:41.761Z,7.78
2023-05-01T05:47:08.686Z,6.95
2023-05-01T05:49:35.778Z,8.43
2023-05-01T05:52:02.672Z,7.20
2023-05-01T05:54:29.750Z,7.05
2023-05-01T05:56:56.707Z,7.03
2023-05-01T05:59:23.668Z,7.05
2023-05-01T06:01:50.579Z,6.70
2023-05-01T06:04:17.517Z,6.50
2023-05-01T06:06:44.467Z,7.00
2023-05-01T06:09:12.797Z,6.65
2023-05-01T06:11:40.071Z,6.38
2023-05-01T06:14:07.510Z,6.28
2023-05-01T06:16:35.117Z,6.25
2023-05-01T06:19:02.510Z,6.10
2023-05-01T06:21:29.566Z,5.85
2023-05-01T06:23:56.418Z,6.25
2023-05-01T06:26:23.834Z,6.15
2023-05-01T06:28:50.918Z,5.95
2023-05-01T06:31:20.115Z,5.60
2023-05-01T06:33:47.128Z,5.82
2023-05-01T06:36:13.994Z,5.10
2023-05-01T06:38:44.730Z,5.00
2023-05-01T06:41:11.995Z,4.00
2023-05-01T06:43:38.929Z,4.97
2023-05-01T06:46:05.966Z,4.82
2023-05-01T06:48:32.925Z,4.38
2023-05-01T06:50:59.775Z,4.80
2023-05-01T06:53:26.750Z,4.30
2023-05-01T06:55:53.620Z,5.07
2023-05-01T06:58:23.831Z,4.90
2023-05-01T07:00:53.808Z,4.75
2023-05-01T07:03:22.247Z,4.40
2023-05-01T07:05:49.262Z,4.20
2023-05-01T07:08:16.184Z,4.55
2023-05-01T07:10:43.702Z,4.00
2023-05-01T07:13:10.865Z,3.75
2023-05-01T07:15:40.108Z,3.88
2023-05-01T07:18:07.134Z,4.10
2023-05-01T07:20:37.249Z,4.00
2023-05-01T07:23:07.269Z,3.97
2023-05-01T07:25:35.051Z,4.00
2023-05-01T07:28:04.548Z,3.70
2023-05-01T07:30:33.170Z,3.40
2023-05-01T07:33:00.301Z,3.83
2023-05-01T07:35:27.432Z,3.33
2023-05-01T07:37:55.153Z,3.45
2023-05-01T07:40:22.223Z,14.50
2023-05-01T07:42:49.089Z,32.50
2023-05-01T07:45:16.504Z,3.58
2023-05-01T07:47:43.505Z,3.70
2023-05-01T07:50:11.944Z,3.75
2023-05-01T07:52:39.798Z,3.75
2023-05-01T07:55:07.753Z,3.50
2023-05-01T07:57:36.036Z,3.38
2023-05-01T08:00:03.631Z,3.35
2023-05-01T08:02:30.707Z,3.28
2023-05-01T08:04:58.164Z,3.38
2023-05-01T08:07:25.092Z,3.78
2023-05-01T08:09:52.018Z,2.78
2023-05-01T08:12:18.973Z,3.45
2023-05-01T08:14:45.862Z,3.10
2023-05-01T08:17:12.748Z,3.85
2023-05-01T08:19:40.311Z,4.28
2023-05-01T08:22:07.262Z,4.50
2023-05-01T08:24:34.225Z,3.50
2023-05-01T08:27:01.351Z,4.55
2023-05-01T08:29:28.502Z,4.70
2023-05-01T08:31:58.587Z,2.92
2023-05-01T08:34:25.653Z,6.15
2023-05-01T08:36:52.621Z,5.50
2023-05-01T08:39:19.667Z,4.18
2023-05-01T08:41:48.690Z,4.30
2023-05-01T08:44:16.884Z,3.40
2023-05-01T08:46:57.777Z,4.50
2023-05-01T08:49:27.591Z,3.80
2023-05-01T08:51:57.000Z,3.42
2023-05-01T08:54:27.588Z,3.45
2023-05-01T08:56:56.749Z,3.10
2023-05-01T08:59:25.442Z,3.75
2023-05-01T09:01:53.397Z,3.40
2023-05-01T09:04:22.008Z,3.80
2023-05-01T09:06:50.410Z,3.50
2023-05-01T09:09:17.362Z,9.27
2023-05-01T09:11:45.280Z,3.70
2023-05-01T09:14:12.444Z,3.15
2023-05-01T09:16:39.464Z,3.63
2023-05-01T09:19:06.596Z,6.68
2023-05-01T09:21:33.534Z,4.07
2023-05-01T09:24:01.720Z,3.60
2023-05-01T09:26:28.676Z,3.50
2023-05-01T09:28:59.656Z,3.50
2023-05-01T09:31:32.804Z,3.72
2023-05-01T09:34:06.016Z,3.30
2023-05-01T09:39:02.224Z,6.97
2023-05-01T09:41:31.562Z,3.72
2023-05-01T09:44:02.156Z,3.67
2023-05-01T09:46:40.730Z,5.40
2023-05-01T09:49:07.937Z,3.65
2023-05-01T09:51:35.357Z,3.55
2023-05-01T09:54:07.203Z,3.53
2023-05-01T09:56:47.674Z,3.80
2023-05-01T09:59:20.342Z,3.92
2023-05-01T10:01:50.527Z,3.70
2023-05-01T10:04:18.202Z,3.47
2023-05-01T10:06:45.453Z,3.80
2023-05-01T10:09:27.385Z,3.58
2023-05-01T10:11:57.751Z,3.58
2023-05-01T10:14:26.921Z,3.47
2023-05-01T10:16:54.572Z,3.75
2023-05-01T10:19:22.367Z,3.60
2023-05-01T10:21:49.985Z,3.60
2023-05-01T10:24:17.907Z,4.13
2023-05-01T10:26:48.340Z,3.60
2023-05-01T10:29:15.800Z,4.40
2023-05-01T10:31:42.887Z,3.33
2023-05-01T10:34:16.426Z,4.05
2023-05-01T10:36:56.819Z,3.78
2023-05-01T10:39:35.241Z,3.58
2023-05-01T10:42:08.645Z,3.03
2023-05-01T10:44:35.961Z,3.17
2023-05-01T10:47:44.641Z,4.38
2023-05-01T10:50:15.967Z,3.22
2023-05-01T10:53:14.688Z,3.03
2023-05-01T10:55:44.822Z,3.42
2023-05-01T10:58:14.103Z,3.42
2023-05-01T11:00:42.287Z,5.82
2023-05-01T11:03:27.041Z,5.07
2023-05-01T11:06:02.603Z,3.85
2023-05-01T11:08:38.709Z,3.28
2023-05-01T11:11:23.251Z,3.90
2023-05-01T11:14:06.401Z,3.20
2023-05-01T11:16:42.089Z,3.05
2023-05-01T11:19:09.605Z,3.33
2023-05-01T11:21:39.180Z,2.97
2023-05-01T11:24:09.996Z,3.58
2023-05-01T11:26:42.308Z,3.10
2023-05-01T11:29:11.430Z,3.10
2023-05-01T11:31:40.138Z,3.40
2023-05-01T11:34:07.288Z,2.97
2023-05-01T11:36:54.495Z,3.13
2023-05-01T11:39:22.189Z,3.30
2023-05-01T11:41:49.125Z,3.10
2023-05-01T11:44:18.290Z,3.10
2023-05-01T11:46:45.253Z,3.10
2023-05-01T11:49:13.408Z,3.22
2023-05-01T11:51:40.655Z,2.95
2023-05-01T11:54:15.549Z,3.45
2023-05-01T11:56:42.919Z,2.72
2023-05-01T11:59:18.990Z,2.50
2023-05-01T12:01:47.068Z,2.78
2023-05-01T12:04:31.559Z,3.00
2023-05-01T12:06:59.326Z,2.95
2023-05-01T12:09:28.933Z,2.90
2023-05-01T12:11:59.680Z,3.08
2023-05-01T12:14:26.821Z,2.95
2023-05-01T12:16:54.187Z,2.80
2023-05-01T12:19:23.832Z,2.38
2023-05-01T12:22:07.018Z,2.75
2023-05-01T12:24:34.080Z,2.42
2023-05-01T12:27:03.443Z,2.50
2023-05-01T12:29:44.773Z,2.50
2023-05-01T12:32:11.870Z,2.60
2023-05-01T12:34:40.276Z,2.53
2023-05-01T12:37:08.955Z,2.95
2023-05-01T12:39:42.537Z,3.10
2023-05-01T12:42:16.674Z,2.70
2023-05-01T12:44:44.272Z,2.50
2023-05-01T12:47:13.181Z,2.33
2023-05-01T12:49:40.674Z,2.35
2023-05-01T12:52:09.130Z,2.40
2023-05-01T12:54:39.898Z,2.40
2023-05-01T12:57:16.203Z,2.33
2023-05-01T12:59:45.727Z,2.30
2023-05-01T13:02:18.270Z,2.95
2023-05-01T13:04:49.191Z,3.28
2023-05-01T13:07:19.227Z,2.90
2023-05-01T13:09:53.564Z,3.08
2023-05-01T13:12:21.335Z,2.70
2023-05-01T13:14:48.995Z,2.50
2023-05-01T13:17:27.841Z,2.70
2023-05-01T13:19:57.427Z,2.95
2023-05-01T13:22:35.990Z,3.35
2023-05-01T13:25:18.305Z,3.25
2023-05-01T13:27:53.274Z,3.45
2023-05-01T13:30:31.320Z,2.80
2023-05-01T13:32:58.340Z,2.88
2023-05-01T13:35:27.191Z,2.72
2023-05-01T13:37:55.110Z,2.47
2023-05-01T13:40:26.298Z,2.70
2023-05-01T13:42:54.167Z,3.50
2023-05-01T13:45:21.471Z,3.28
2023-05-01T13:47:52.150Z,2.50
2023-05-01T13:50:19.323Z,2.70
2023-05-01T13:52:46.964Z,2.97
2023-05-01T13:55:14.784Z,3.00
2023-05-01T13:57:43.206Z,2.97
2023-05-01T14:00:19.251Z,3.00
2023-05-01T14:02:48.916Z,3.20
2023-05-01T14:05:16.886Z,3.33
2023-05-01T14:07:58.589Z,3.42
2023-05-01T14:10:28.692Z,3.45
2023-05-01T14:12:59.828Z,3.60
2023-05-01T14:15:28.625Z,3.22
2023-05-01T14:17:56.151Z,3.53
2023-05-01T14:20:25.753Z,3.38
2023-05-01T14:22:53.518Z,3.50
2023-05-01T14:25:34.961Z,3.83
2023-05-01T14:28:08.095Z,7.18
2023-05-01T14:33:07.707Z,4.57
2023-05-01T14:35:36.317Z,3.50
2023-05-01T14:38:14.832Z,3.58
2023-05-01T14:40:42.660Z,3.35
2023-05-01T14:43:14.557Z,4.35
2023-05-01T14:45:43.357Z,3.80
2023-05-01T14:48:23.119Z,3.65
2023-05-01T14:50:51.241Z,3.53
2023-05-01T14:53:18.597Z,3.35
2023-05-01T14:55:45.683Z,3.35
2023-05-01T14:58:12.561Z,3.47
2023-05-01T15:00:39.477Z,3.58
2023-05-01T15:03:06.514Z,3.45
2023-05-01T15:05:33.549Z,3.50
2023-05-01T15:08:00.604Z,3.70
2023-05-01T15:10:28.856Z,3.63
2023-05-01T15:12:55.695Z,3.50
2023-05-01T15:15:22.651Z,3.30
2023-05-01T15:17:49.874Z,3.20
2023-05-01T15:20:16.962Z,3.13
2023-05-01T15:22:43.836Z,3.00
2023-05-01T15:25:11.760Z,3.15
2023-05-01T15:27:38.860Z,3.78
2023-05-01T15:30:06.755Z,3.20
2023-05-01T15:32:33.747Z,3.35
2023-05-01T15:35:00.890Z,3.05
2023-05-01T15:37:27.914Z,3.25
2023-05-01T15:39:54.805Z,3.65
2023-05-01T15:42:21.674Z,3.33
2023-05-01T15:44:48.766Z,3.55
2023-05-01T15:47:15.898Z,4.07
2023-05-01T15:49:43.021Z,3.95
2023-05-01T15:52:09.941Z,4.03
2023-05-01T15:54:37.598Z,3.38
2023-05-01T15:57:04.637Z,3.65
2023-05-01T15:59:31.538Z,3.60
2023-05-01T16:01:58.757Z,3.70
2023-05-01T16:04:25.670Z,3.88
2023-05-01T16:06:52.689Z,3.55
2023-05-01T16:09:21.221Z,3.40
2023-05-01T16:11:48.264Z,3.55
2023-05-01T16:14:15.799Z,3.53
2023-05-01T16:16:43.387Z,3.50
2023-05-01T16:19:16.681Z,3.88
2023-05-01T16:21:43.931Z,3.78
2023-05-01T16:24:11.300Z,4.22
2023-05-01T16:26:41.022Z,3.95
2023-05-01T16:29:08.608Z,4.60
2023-05-01T16:31:40.926Z,5.18
2023-05-01T16:34:11.743Z,4.95
2023-05-01T16:36:44.570Z,12.57
2023-05-01T16:39:15.177Z,4.63
2023-05-01T16:41:48.669Z,4.15
2023-05-01T16:44:18.049Z,4.05
2023-05-01T16:46:56.268Z,4.45
2023-05-01T16:49:25.345Z,6.07
2023-05-01T16:51:56.694Z,4.05
2023-05-01T16:54:25.876Z,8.38
2023-05-01T16:56:52.884Z,5.47
2023-05-01T16:59:19.789Z,3.72
2023-05-01T17:01:46.944Z,5.00
2023-05-01T17:04:15.284Z,3.88
2023-05-01T17:06:42.278Z,3.70
2023-05-01T17:09:09.360Z,3.30
2023-05-01T17:11:36.749Z,3.53
2023-05-01T17:14:04.119Z,3.90
2023-05-01T17:16:33.506Z,3.42
2023-05-01T17:19:01.574Z,4.28
2023-05-01T17:21:28.618Z,3.50
2023-05-01T17:23:55.492Z,6.30
2023-05-01T17:26:22.902Z,4.70
2023-05-01T17:28:50.562Z,4.93
2023-05-01T17:31:18.796Z,5.20
2023-05-01T17:33:47.820Z,11.32
2023-05-01T17:36:15.015Z,15.43
2023-05-01T17:38:42.063Z,15.43
2023-05-01T17:41:08.977Z,13.70
2023-05-01T17:43:36.091Z,9.50
2023-05-01T17:46:04.879Z,5.40
2023-05-01T17:48:32.105Z,5.10
2023-05-01T17:50:59.432Z,9.45
2023-05-01T17:53:26.762Z,8.45
2023-05-01T17:55:55.056Z,8.70
2023-05-01T17:58:22.214Z,9.82
2023-05-01T18:00:51.995Z,13.77
2023-05-01T18:03:19.911Z,12.50
2023-05-01T18:05:47.521Z,14.20
2023-05-01T18:08:14.705Z,7.28
2023-05-01T18:10:41.850Z,7.13
2023-05-01T18:13:09.621Z,9.30
2023-05-01T18:15:36.802Z,7.43
2023-05-01T18:18:04.192Z,10.32
2023-05-01T18:20:31.501Z,7.88
2023-05-01T18:22:58.637Z,10.75
2023-05-01T18:25:26.065Z,10.15
2023-05-01T18:27:58.862Z,25.73
2023-05-01T18:30:28.884Z,17.70
2023-05-01T18:32:56.879Z,12.48
2023-05-01T18:35:24.112Z,15.93
2023-05-01T18:37:52.685Z,9.85
2023-05-01T18:40:20.728Z,15.50
2023-05-01T18:42:50.526Z,9.05
2023-05-01T18:45:18.435Z,9.25
2023-05-01T18:47:45.940Z,8.23
2023-05-01T18:50:13.969Z,7.30
2023-05-01T18:52:43.770Z,8.32
2023-05-01T18:55:12.763Z,9.70
2023-05-01T18:57:45.011Z,8.65
2023-05-01T19:00:17.782Z,6.33
2023-05-01T19:02:52.083Z,6.50
2023-05-01T19:05:22.775Z,6.13
2023-05-01T19:07:50.276Z,5.75
2023-05-01T19:10:17.924Z,6.90
2023-05-01T19:12:48.595Z,9.70
2023-05-01T19:15:23.640Z,19.90
2023-05-01T19:18:00.217Z,17.40
2023-05-01T19:20:28.718Z,15.60
2023-05-01T19:22:57.328Z,14.45
2023-05-01T19:25:32.553Z,17.65
2023-05-01T19:28:02.190Z,22.73
2023-05-01T19:30:33.978Z,17.25
2023-05-01T19:33:01.571Z,15.15
2023-05-01T19:35:29.288Z,16.25
2023-05-01T19:37:59.938Z,13.00
2023-05-01T19:40:27.407Z,19.58
2023-05-01T19:42:55.537Z,66.38
2023-05-01T19:45:24.725Z,62.38
2023-05-01T19:47:55.696Z,43.65
2023-05-01T19:50:23.157Z,56.40
2023-05-01T19:52:51.925Z,45.42
2023-05-01T19:55:19.753Z,56.88
2023-05-01T19:57:47.438Z,37.00
2023-05-01T20:00:15.212Z,26.10
2023-05-01T20:02:43.193Z,22.85
2023-05-01T20:05:13.211Z,20.27
2023-05-01T20:07:44.289Z,16.95
2023-05-01T20:10:13.154Z,15.27
2023-05-01T20:12:41.472Z,13.25
2023-05-01T20:15:09.561Z,12.88
2023-05-01T20:17:38.406Z,10.65
2023-05-01T20:20:07.045Z,11.68
2023-05-01T20:22:34.499Z,12.38
2023-05-01T20:25:02.984Z,26.42
2023-05-01T20:27:30.251Z,61.53
2023-05-01T20:29:57.807Z,93.50
2023-05-01T20:32:27.063Z,51.28
2023-05-01T20:34:55.512Z,72.55
2023-05-01T20:37:23.210Z,30.33
2023-05-01T20:39:50.677Z,17.63
2023-05-01T20:42:18.515Z,13.93
2023-05-01T20:44:48.811Z,14.15
2023-05-01T20:47:16.026Z,12.38
2023-05-01T20:49:44.647Z,13.35
2023-05-01T20:52:12.324Z,12.02
2023-05-01T20:54:39.778Z,12.93
2023-05-01T20:57:07.532Z,12.77
2023-05-01T20:59:35.326Z,14.73
2023-05-01T21:02:08.396Z,14.52
2023-05-01T21:07:06.562Z,11.52
2023-05-01T21:09:35.208Z,10.90
2023-05-01T21:12:06.403Z,9.30
2023-05-01T21:14:33.820Z,9.95
2023-05-01T21:17:01.578Z,10.43
2023-05-01T21:19:29.161Z,10.95
2023-05-01T21:21:56.551Z,12.10
2023-05-01T21:24:26.313Z,10.07
2023-05-01T21:26:54.977Z,10.90
2023-05-01T21:29:22.297Z,11.02
2023-05-01T21:31:49.666Z,9.95
2023-05-01T21:34:20.934Z,10.30
2023-05-01T21:36:49.361Z,10.15
2023-05-01T21:39:17.214Z,10.10
2023-05-01T21:41:48.117Z,10.40
2023-05-01T21:44:15.768Z,10.32
2023-05-01T21:46:43.335Z,10.20
2023-05-01T21:49:18.716Z,10.30
2023-05-01T21:51:45.974Z,9.48
2023-05-01T21:54:13.649Z,9.73
2023-05-01T21:56:41.037Z,9.90
2023-05-01T21:59:08.240Z,9.50
2023-05-01T22:01:38.432Z,9.40
2023-05-01T22:04:07.208Z,11.07
2023-05-01T22:06:34.350Z,27.67
2023-05-01T22:09:01.289Z,41.53
2023-05-01T22:11:28.864Z,37.67
2023-05-01T22:13:56.757Z,57.50
2023-05-01T22:16:23.857Z,61.47
2023-05-01T22:18:51.022Z,31.98
2023-05-01T22:21:18.001Z,15.07
2023-05-01T22:23:46.403Z,11.55
2023-05-01T22:26:13.476Z,10.65
2023-05-01T22:28:40.460Z,10.07
2023-05-01T22:31:07.654Z,9.73
2023-05-01T22:33:34.583Z,10.10
2023-05-01T22:36:01.480Z,9.50
2023-05-01T22:38:28.331Z,9.77
2023-05-01T22:40:55.284Z,9.80
2023-05-01T22:43:22.167Z,10.15
2023-05-01T22:45:49.163Z,10.68
2023-05-01T22:48:16.292Z,10.50
2023-05-01T22:50:43.263Z,10.95
2023-05-01T22:53:10.605Z,10.88
2023-05-01T22:55:38.172Z,10.90
2023-05-01T22:58:05.039Z,10.35
2023-05-01T23:00:32.373Z,11.40
2023-05-01T23:03:00.455Z,11.73
2023-05-01T23:05:27.406Z,16.13
2023-05-01T23:07:54.330Z,15.60
2023-05-01T23:10:26.644Z,12.90
2023-05-01T23:12:53.621Z,8.98
2023-05-01T23:15:25.998Z,11.05
2023-05-01T23:17:53.018Z,13.85
2023-05-01T23:20:24.510Z,12.38
2023-05-01T23:22:52.018Z,11.48
2023-05-01T23:25:28.371Z,15.82
2023-05-01T23:27:57.002Z,12.80
2023-05-01T23:30:24.043Z,11.40
2023-05-01T23:32:51.403Z,11.48
2023-05-01T23:35:25.358Z,9.20
2023-05-01T23:37:53.580Z,9.65
2023-05-01T23:40:20.766Z,9.27
2023-05-01T23:42:48.182Z,8.45
2023-05-01T23:45:15.330Z,8.60
2023-05-01T23:47:42.423Z,8.70
2023-05-01T23:50:10.124Z,9.75
2023-05-01T23:52:37.278Z,8.57
2023-05-01T23:55:04.449Z,9.70
2023-05-01T23:57:31.282Z,8.68
2023-05-01T23:59:58.307Z,9.18
